createdAt,value
2022-12-23T00:01:37.514Z,0.90
2022-12-23T00:04:04.410Z,1.00
2022-12-23T00:06:31.054Z,1.00
2022-12-23T00:09:00.520Z,0.80
2022-12-23T00:11:28.389Z,0.77
2022-12-23T00:14:20.456Z,0.90
2022-12-23T00:16:48.386Z,1.00
2022-12-23T00:19:15.191Z,0.80
2022-12-23T00:21:41.844Z,0.82
2022-12-23T00:24:08.503Z,0.88
2022-12-23T00:26:35.165Z,0.90
2022-12-23T00:29:01.758Z,0.90
2022-12-23T00:31:28.387Z,0.80
2022-12-23T00:33:55.067Z,0.95
2022-12-23T00:36:30.026Z,0.85
2022-12-23T00:39:16.717Z,0.77
2022-12-23T00:42:02.224Z,0.85
2022-12-23T00:44:28.905Z,0.80
2022-12-23T00:46:55.646Z,0.80
2022-12-23T00:49:41.174Z,0.77
2022-12-23T00:52:11.756Z,0.80
2022-12-23T00:54:38.370Z,0.90
2022-12-23T00:57:05.386Z,1.00
2022-12-23T00:59:32.972Z,0.90
2022-12-23T01:02:18.230Z,0.90
2022-12-23T01:05:03.621Z,0.75
2022-12-23T01:07:30.246Z,0.70
2022-12-23T01:09:56.868Z,0.90
2022-12-23T01:12:23.527Z,0.90
2022-12-23T01:14:50.171Z,0.73
2022-12-23T01:17:16.960Z,0.80
2022-12-23T01:19:43.722Z,0.80
2022-12-23T01:22:10.360Z,0.70
2022-12-23T01:24:36.950Z,0.82
2022-12-23T01:27:03.597Z,0.80
2022-12-23T01:29:30.333Z,0.85
2022-12-23T01:31:57.112Z,0.70
2022-12-23T01:34:23.864Z,0.80
2022-12-23T01:36:50.692Z,0.90
2022-12-23T01:39:17.328Z,0.93
2022-12-23T01:42:02.747Z,0.60
2022-12-23T01:44:53.840Z,0.90
2022-12-23T01:47:31.952Z,0.88
2022-12-23T01:50:17.537Z,0.90
2022-12-23T01:52:52.185Z,0.80
2022-12-23T01:55:22.534Z,0.80
2022-12-23T01:57:49.571Z,0.70
2022-12-23T02:00:35.164Z,0.70
2022-12-23T02:03:20.692Z,0.70
2022-12-23T02:05:48.330Z,0.75
2022-12-23T02:08:35.036Z,0.60
2022-12-23T02:11:27.602Z,0.70
2022-12-23T02:14:34.036Z,0.70
2022-12-23T02:17:15.687Z,0.70
2022-12-23T02:19:57.940Z,0.70
2022-12-23T02:22:58.893Z,0.60
2022-12-23T02:25:58.745Z,0.60
2022-12-23T02:28:49.456Z,0.60
2022-12-23T02:31:27.127Z,0.70
2022-12-23T02:34:16.416Z,0.63
2022-12-23T02:36:50.074Z,0.70
2022-12-23T02:39:27.093Z,0.70
2022-12-23T02:42:07.906Z,0.95
2022-12-23T02:44:52.601Z,0.70
2022-12-23T02:47:39.547Z,0.60
2022-12-23T02:50:20.944Z,0.70
2022-12-23T02:52:49.853Z,0.60
2022-12-23T02:55:22.575Z,0.60
2022-12-23T02:57:52.588Z,0.70
2022-12-23T03:00:19.658Z,0.70
2022-12-23T03:02:46.934Z,0.70
2022-12-23T03:05:33.139Z,0.60
2022-12-23T03:08:03.278Z,0.52
2022-12-23T03:10:37.556Z,0.60
2022-12-23T03:13:18.009Z,0.57
2022-12-23T03:16:02.950Z,0.60
2022-12-23T03:18:52.813Z,0.63
2022-12-23T03:22:01.856Z,0.70
2022-12-23T03:24:47.843Z,0.70
2022-12-23T03:27:40.147Z,0.55
2022-12-23T03:30:14.474Z,0.60
2022-12-23T03:32:56.262Z,0.63
2022-12-23T03:35:49.879Z,0.60
2022-12-23T03:38:18.990Z,0.70
2022-12-23T03:40:52.727Z,0.70
2022-12-23T03:43:30.350Z,0.70
2022-12-23T03:46:02.292Z,0.60
2022-12-23T03:48:42.789Z,0.57
2022-12-23T03:51:18.403Z,0.70
2022-12-23T03:53:54.595Z,0.60
2022-12-23T03:56:42.942Z,0.60
2022-12-23T03:59:33.133Z,0.60
2022-12-23T04:02:14.667Z,0.70
2022-12-23T04:05:02.380Z,0.60
2022-12-23T04:07:40.111Z,0.70
2022-12-23T04:10:08.588Z,0.60
2022-12-23T04:12:36.191Z,0.57
2022-12-23T04:15:07.447Z,0.50
2022-12-23T04:17:37.464Z,0.60
2022-12-23T04:20:04.879Z,0.60
2022-12-23T04:22:31.454Z,0.70
2022-12-23T04:24:58.024Z,0.60
2022-12-23T04:27:24.644Z,0.60
2022-12-23T04:29:51.306Z,0.50
2022-12-23T04:32:17.926Z,0.55
2022-12-23T04:34:44.540Z,0.63
2022-12-23T04:37:11.227Z,0.28
2022-12-23T04:39:37.831Z,0.60
2022-12-23T04:42:04.447Z,0.60
2022-12-23T04:44:31.093Z,0.60
2022-12-23T04:46:57.858Z,0.60
2022-12-23T04:49:24.603Z,0.50
2022-12-23T04:51:51.204Z,0.60
2022-12-23T04:54:17.805Z,0.60
2022-12-23T04:56:44.427Z,0.55
2022-12-23T04:59:11.215Z,0.63
2022-12-23T05:01:38.183Z,0.50
2022-12-23T05:04:05.053Z,0.60
2022-12-23T05:06:31.719Z,0.60
2022-12-23T05:08:58.324Z,0.68
2022-12-23T05:11:25.041Z,0.40
2022-12-23T05:13:51.672Z,0.32
2022-12-23T05:16:18.374Z,0.50
2022-12-23T05:18:45.042Z,0.50
2022-12-23T05:21:11.797Z,0.60
2022-12-23T05:23:38.956Z,0.40
2022-12-23T05:26:05.713Z,0.50
2022-12-23T05:28:33.204Z,0.60
2022-12-23T05:31:06.718Z,0.40
2022-12-23T05:33:34.655Z,0.52
2022-12-23T05:36:01.525Z,0.50
2022-12-23T05:38:28.393Z,0.50
2022-12-23T05:40:54.990Z,0.52
2022-12-23T05:43:22.163Z,0.40
2022-12-23T05:45:49.589Z,0.60
2022-12-23T05:48:16.876Z,0.40
2022-12-23T05:50:43.619Z,0.40
2022-12-23T05:53:10.459Z,0.40
2022-12-23T05:55:37.121Z,0.50
2022-12-23T05:58:03.934Z,0.60
2022-12-23T06:00:31.064Z,0.50
2022-12-23T06:02:57.895Z,0.50
2022-12-23T06:05:24.770Z,0.43
2022-12-23T06:07:51.676Z,0.50
2022-12-23T06:10:18.567Z,0.47
2022-12-23T06:12:45.210Z,0.50
2022-12-23T06:15:12.526Z,0.40
2022-12-23T06:17:39.152Z,0.60
2022-12-23T06:20:06.568Z,0.50
2022-12-23T06:22:33.671Z,0.50
2022-12-23T06:25:00.281Z,0.50
2022-12-23T06:27:26.911Z,0.50
2022-12-23T06:29:53.635Z,0.60
2022-12-23T06:32:20.540Z,0.50
2022-12-23T06:34:47.150Z,0.40
2022-12-23T06:37:13.776Z,0.50
2022-12-23T06:39:40.447Z,0.50
2022-12-23T06:42:07.068Z,0.45
2022-12-23T06:44:33.720Z,0.55
2022-12-23T06:47:00.393Z,0.43
2022-12-23T06:49:27.013Z,0.50
2022-12-23T06:51:53.629Z,0.32
2022-12-23T06:54:20.311Z,0.60
2022-12-23T06:56:46.884Z,0.50
2022-12-23T06:59:13.535Z,0.50
2022-12-23T07:01:40.633Z,0.60
2022-12-23T07:04:07.462Z,0.65
2022-12-23T07:06:34.097Z,0.43
2022-12-23T07:09:01.046Z,0.50
2022-12-23T07:11:27.687Z,0.60
2022-12-23T07:13:54.424Z,0.40
2022-12-23T07:16:21.114Z,0.50
2022-12-23T07:18:47.809Z,0.40
2022-12-23T07:21:21.569Z,0.50
2022-12-23T07:23:53.283Z,0.40
2022-12-23T07:26:19.907Z,0.40
2022-12-23T07:28:48.353Z,0.50
2022-12-23T07:31:15.820Z,0.40
2022-12-23T07:33:42.547Z,0.50
2022-12-23T07:36:09.410Z,0.65
2022-12-23T07:38:36.046Z,0.43
2022-12-23T07:41:02.697Z,0.55
2022-12-23T07:43:29.305Z,0.30
2022-12-23T07:46:00.489Z,0.50
2022-12-23T07:48:27.785Z,0.43
2022-12-23T07:51:00.651Z,0.43
2022-12-23T07:53:27.880Z,0.57
2022-12-23T07:55:56.665Z,0.50
2022-12-23T07:58:23.945Z,0.38
2022-12-23T08:00:50.664Z,0.50
2022-12-23T08:03:17.556Z,0.50
2022-12-23T08:05:44.359Z,0.63
2022-12-23T08:08:11.072Z,0.45
2022-12-23T08:10:41.413Z,0.60
2022-12-23T08:13:11.142Z,0.57
2022-12-23T08:15:37.745Z,0.55
2022-12-23T08:18:04.531Z,0.47
2022-12-23T08:20:31.160Z,0.50
2022-12-23T08:22:57.927Z,0.40
2022-12-23T08:25:24.551Z,0.60
2022-12-23T08:27:51.419Z,0.50
2022-12-23T08:30:18.969Z,0.40
2022-12-23T08:32:45.645Z,0.93
2022-12-23T08:35:12.291Z,0.60
2022-12-23T08:37:38.913Z,0.60
2022-12-23T08:40:06.209Z,0.75
2022-12-23T08:42:32.850Z,0.70
2022-12-23T08:45:00.876Z,0.57
2022-12-23T08:47:27.466Z,0.70
2022-12-23T08:49:54.099Z,1.10
2022-12-23T08:52:20.722Z,0.47
2022-12-23T08:54:47.402Z,0.60
2022-12-23T08:57:14.117Z,0.70
2022-12-23T08:59:40.778Z,0.70
2022-12-23T09:02:10.185Z,0.60
2022-12-23T09:04:37.030Z,0.88
2022-12-23T09:07:03.733Z,0.70
2022-12-23T09:09:30.455Z,0.70
2022-12-23T09:11:57.209Z,0.98
2022-12-23T09:14:23.810Z,0.63
2022-12-23T09:16:52.329Z,0.68
2022-12-23T09:19:20.352Z,0.55
2022-12-23T09:21:47.021Z,0.88
2022-12-23T09:24:13.641Z,0.68
2022-12-23T09:26:40.268Z,0.85
2022-12-23T09:29:06.887Z,0.80
2022-12-23T09:31:37.114Z,0.82
2022-12-23T09:34:05.570Z,0.70
2022-12-23T09:36:32.289Z,0.82
2022-12-23T09:38:59.209Z,0.80
2022-12-23T09:41:57.074Z,0.90
2022-12-23T09:45:01.646Z,0.60
2022-12-23T09:47:31.509Z,0.63
2022-12-23T09:50:04.927Z,0.90
2022-12-23T09:52:45.979Z,0.90
2022-12-23T09:55:13.796Z,0.73
2022-12-23T09:57:51.989Z,0.68
2022-12-23T10:00:20.094Z,0.90
2022-12-23T10:03:11.430Z,0.85
2022-12-23T10:05:43.762Z,0.80
2022-12-23T10:08:10.370Z,0.80
2022-12-23T10:10:43.025Z,0.88
2022-12-23T10:13:36.937Z,0.80
2022-12-23T10:16:12.845Z,1.02
2022-12-23T10:18:56.974Z,0.70
2022-12-23T10:21:46.738Z,0.60
2022-12-23T10:24:23.413Z,0.65
2022-12-23T10:27:00.807Z,0.88
2022-12-23T10:29:31.434Z,0.80
2022-12-23T10:32:25.952Z,0.70
2022-12-23T10:35:13.877Z,0.73
2022-12-23T10:37:54.921Z,0.60
2022-12-23T10:41:09.532Z,0.70
2022-12-23T10:44:12.969Z,0.85
2022-12-23T10:47:08.081Z,0.68
2022-12-23T10:49:50.491Z,0.70
2022-12-23T10:52:23.245Z,0.70
2022-12-23T10:54:49.896Z,0.75
2022-12-23T10:57:18.778Z,0.80
2022-12-23T10:59:45.830Z,0.70
2022-12-23T11:02:12.651Z,0.80
2022-12-23T11:04:45.375Z,0.80
2022-12-23T11:07:44.232Z,0.60
2022-12-23T11:10:25.519Z,0.70
2022-12-23T11:12:53.802Z,0.50
2022-12-23T11:15:35.808Z,1.02
2022-12-23T11:18:12.831Z,0.75
2022-12-23T11:20:41.850Z,0.90
2022-12-23T11:23:26.768Z,0.57
2022-12-23T11:26:08.940Z,1.02
2022-12-23T11:28:38.752Z,0.80
2022-12-23T11:31:09.749Z,0.60
2022-12-23T11:33:45.538Z,0.77
2022-12-23T11:36:27.692Z,0.75
2022-12-23T11:39:03.344Z,0.80
2022-12-23T11:41:43.295Z,0.68
2022-12-23T11:44:18.634Z,0.70
2022-12-23T11:46:45.592Z,0.60
2022-12-23T11:49:27.063Z,0.73
2022-12-23T11:52:12.638Z,0.70
2022-12-23T11:54:39.599Z,0.80
2022-12-23T11:57:15.232Z,1.00
2022-12-23T11:59:51.001Z,0.80
2022-12-23T12:02:22.798Z,0.80
2022-12-23T12:05:21.746Z,1.08
2022-12-23T12:07:49.971Z,1.00
2022-12-23T12:10:25.093Z,0.68
2022-12-23T12:12:56.623Z,0.80
2022-12-23T12:15:49.765Z,0.63
2022-12-23T12:18:18.845Z,0.82
2022-12-23T12:20:50.648Z,0.70
2022-12-23T12:23:40.431Z,0.82
2022-12-23T12:26:31.088Z,0.90
2022-12-23T12:29:13.396Z,0.70
2022-12-23T12:31:45.400Z,0.80
2022-12-23T12:34:29.959Z,0.60
2022-12-23T12:37:23.062Z,0.70
2022-12-23T12:40:16.642Z,0.70
2022-12-23T12:42:49.027Z,0.93
2022-12-23T12:45:18.137Z,1.08
2022-12-23T12:48:26.616Z,0.55
2022-12-23T12:51:11.920Z,0.82
2022-12-23T12:53:46.576Z,1.00
2022-12-23T12:56:27.177Z,0.90
2022-12-23T12:58:53.831Z,0.90
2022-12-23T13:01:42.213Z,0.90
2022-12-23T13:04:36.146Z,0.90
2022-12-23T13:07:14.743Z,0.80
2022-12-23T13:09:44.394Z,0.90
2022-12-23T13:12:16.744Z,0.80
2022-12-23T13:15:18.453Z,0.80
2022-12-23T13:18:04.895Z,0.90
2022-12-23T13:21:14.465Z,0.88
2022-12-23T13:24:05.706Z,0.60
2022-12-23T13:27:05.589Z,0.80
2022-12-23T13:29:49.443Z,0.70
2022-12-23T13:32:45.055Z,0.98
2022-12-23T13:35:33.652Z,0.70
2022-12-23T13:38:04.215Z,0.60
2022-12-23T13:41:03.060Z,0.63
2022-12-23T13:44:01.532Z,0.85
2022-12-23T13:46:52.200Z,0.80
2022-12-23T13:49:42.203Z,0.80
2022-12-23T13:52:23.655Z,0.98
2022-12-23T13:55:11.741Z,0.65
2022-12-23T13:58:00.674Z,0.90
2022-12-23T14:00:32.345Z,0.90
2022-12-23T14:03:01.741Z,0.80
2022-12-23T14:05:45.361Z,0.75
2022-12-23T14:08:30.991Z,0.90
2022-12-23T14:11:19.799Z,0.60
2022-12-23T14:13:56.286Z,0.68
2022-12-23T14:16:44.831Z,0.80
2022-12-23T14:19:26.774Z,0.80
2022-12-23T14:22:12.885Z,0.80
2022-12-23T14:25:00.818Z,0.88
2022-12-23T14:27:56.672Z,1.13
2022-12-23T14:30:38.688Z,0.73
2022-12-23T14:33:26.883Z,0.73
2022-12-23T14:35:56.698Z,0.70
2022-12-23T14:38:29.212Z,1.10
2022-12-23T14:40:58.767Z,0.70
2022-12-23T14:43:33.179Z,0.98
2022-12-23T14:46:05.623Z,0.82
2022-12-23T14:48:44.749Z,0.85
2022-12-23T14:51:14.413Z,0.80
2022-12-23T14:53:59.263Z,0.80
2022-12-23T14:57:03.233Z,0.80
2022-12-23T14:59:56.707Z,0.90
2022-12-23T15:02:35.845Z,0.90
2022-12-23T15:05:03.274Z,0.75
2022-12-23T15:07:33.160Z,0.65
2022-12-23T15:10:02.570Z,0.80
2022-12-23T15:12:41.966Z,0.77
2022-12-23T15:15:20.940Z,0.70
2022-12-23T15:17:48.392Z,1.10
2022-12-23T15:20:25.132Z,1.10
2022-12-23T15:22:52.656Z,1.00
2022-12-23T15:25:24.022Z,0.80
2022-12-23T15:27:55.958Z,1.10
2022-12-23T15:30:27.447Z,0.95
2022-12-23T15:33:21.821Z,0.88
2022-12-23T15:35:54.019Z,0.77
2022-12-23T15:38:22.238Z,0.90
2022-12-23T15:41:04.864Z,0.90
2022-12-23T15:43:32.250Z,0.70
2022-12-23T15:46:09.287Z,0.90
2022-12-23T15:48:37.943Z,1.17
2022-12-23T15:52:05.127Z,0.70
2022-12-23T15:54:41.234Z,0.90
2022-12-23T15:57:07.872Z,0.80
2022-12-23T15:59:38.130Z,0.77
2022-12-23T16:02:50.192Z,0.70
2022-12-23T16:05:07.537Z,0.70
2022-12-23T16:07:41.799Z,0.60
2022-12-23T16:10:15.211Z,0.73
2022-12-23T16:12:43.204Z,0.88
2022-12-23T16:15:30.991Z,0.65
2022-12-23T16:18:19.247Z,0.55
2022-12-23T16:20:49.149Z,0.82
2022-12-23T16:23:17.009Z,0.68
2022-12-23T16:25:52.784Z,0.82
2022-12-23T16:28:24.080Z,0.85
2022-12-23T16:30:56.568Z,0.80
2022-12-23T16:33:23.136Z,0.80
2022-12-23T16:35:49.766Z,0.70
2022-12-23T16:38:26.460Z,0.70
2022-12-23T16:40:54.862Z,0.57
2022-12-23T16:43:23.332Z,0.90
2022-12-23T16:45:54.129Z,0.77
2022-12-23T16:48:25.596Z,0.70
2022-12-23T16:50:53.542Z,0.63
2022-12-23T16:53:20.332Z,0.70
2022-12-23T16:55:53.687Z,0.90
2022-12-23T16:58:21.772Z,0.80
2022-12-23T17:00:49.009Z,0.70
2022-12-23T17:03:18.767Z,0.80
2022-12-23T17:05:47.032Z,0.60
2022-12-23T17:08:14.499Z,0.70
2022-12-23T17:10:42.476Z,0.70
2022-12-23T17:13:11.952Z,0.60
2022-12-23T17:15:38.893Z,0.70
2022-12-23T17:18:14.317Z,0.70
2022-12-23T17:20:42.263Z,0.70
2022-12-23T17:23:23.065Z,0.77
2022-12-23T17:25:49.706Z,0.73
2022-12-23T17:28:16.277Z,0.70
2022-12-23T17:30:42.944Z,0.75
2022-12-23T17:33:17.568Z,0.65
2022-12-23T17:35:44.193Z,0.70
2022-12-23T17:38:13.816Z,0.80
2022-12-23T17:40:41.025Z,0.70
2022-12-23T17:43:15.840Z,0.73
2022-12-23T17:45:43.463Z,0.70
2022-12-23T17:48:17.972Z,0.88
2022-12-23T17:50:48.007Z,0.70
2022-12-23T17:53:18.732Z,0.75
2022-12-23T17:55:45.892Z,0.82
2022-12-23T17:58:14.001Z,0.90
2022-12-23T18:00:40.755Z,0.80
2022-12-23T18:03:20.650Z,0.80
2022-12-23T18:05:47.325Z,1.10
2022-12-23T18:08:13.914Z,0.90
2022-12-23T18:10:40.734Z,1.00
2022-12-23T18:13:14.097Z,0.85
2022-12-23T18:15:42.799Z,0.75
2022-12-23T18:18:13.780Z,0.80
2022-12-23T18:20:41.561Z,0.80
2022-12-23T18:23:16.031Z,1.00
2022-12-23T18:25:42.744Z,0.73
2022-12-23T18:28:11.106Z,0.73
2022-12-23T18:30:38.304Z,0.80
2022-12-23T18:33:06.814Z,0.73
2022-12-23T18:35:35.996Z,0.63
2022-12-23T18:38:02.765Z,0.80
2022-12-23T18:40:32.870Z,0.80
2022-12-23T18:43:00.326Z,0.98
2022-12-23T18:45:36.565Z,1.30
2022-12-23T18:48:07.664Z,1.00
2022-12-23T18:50:36.971Z,1.10
2022-12-23T18:53:04.412Z,1.10
2022-12-23T18:55:31.157Z,1.00
2022-12-23T18:58:00.115Z,1.05
2022-12-23T19:00:29.753Z,1.33
2022-12-23T19:02:57.119Z,1.10
2022-12-23T19:05:29.161Z,1.10
2022-12-23T19:07:58.168Z,1.20
2022-12-23T19:10:29.340Z,1.77
2022-12-23T19:12:56.604Z,1.30
2022-12-23T19:15:23.739Z,1.30
2022-12-23T19:17:50.909Z,1.50
2022-12-23T19:20:19.460Z,1.17
2022-12-23T19:22:47.119Z,1.27
2022-12-23T19:25:17.007Z,1.33
2022-12-23T19:27:44.712Z,1.30
2022-12-23T19:30:14.497Z,1.25
2022-12-23T19:32:41.201Z,1.10
2022-12-23T19:35:08.395Z,1.10
2022-12-23T19:37:36.324Z,1.38
2022-12-23T19:40:03.140Z,1.10
2022-12-23T19:42:30.503Z,1.00
2022-12-23T19:44:57.116Z,1.17
2022-12-23T19:47:23.744Z,1.00
2022-12-23T19:49:50.328Z,1.20
2022-12-23T19:52:16.943Z,0.90
2022-12-23T19:54:43.573Z,1.00
2022-12-23T19:57:10.238Z,1.20
2022-12-23T19:59:36.820Z,1.20
2022-12-23T20:02:03.536Z,1.10
2022-12-23T20:04:30.182Z,1.10
2022-12-23T20:06:56.796Z,1.10
2022-12-23T20:09:23.671Z,0.90
2022-12-23T20:11:50.354Z,0.90
2022-12-23T20:14:18.651Z,1.30
2022-12-23T20:16:45.354Z,1.10
2022-12-23T20:19:11.963Z,0.90
2022-12-23T20:21:38.569Z,1.17
2022-12-23T20:24:05.973Z,0.82
2022-12-23T20:26:32.913Z,1.05
2022-12-23T20:28:59.737Z,1.10
2022-12-23T20:31:31.740Z,0.77
2022-12-23T20:33:59.023Z,0.98
2022-12-23T20:36:28.998Z,1.05
2022-12-23T20:38:56.243Z,0.90
2022-12-23T20:41:26.054Z,1.10
2022-12-23T20:44:31.857Z,1.00
2022-12-23T20:46:40.048Z,0.90
2022-12-23T20:49:06.776Z,0.95
2022-12-23T20:51:33.411Z,0.85
2022-12-23T20:54:00.894Z,0.90
2022-12-23T20:56:29.282Z,0.88
2022-12-23T20:58:58.427Z,0.90
2022-12-23T21:01:35.276Z,0.80
2022-12-23T21:04:04.780Z,0.90
2022-12-23T21:06:32.460Z,0.80
2022-12-23T21:09:00.119Z,0.80
2022-12-23T21:11:31.451Z,0.90
2022-12-23T21:14:06.349Z,0.80
2022-12-23T21:16:35.015Z,0.90
2022-12-23T21:19:01.953Z,0.85
2022-12-23T21:21:31.070Z,0.90
2022-12-23T21:24:02.218Z,1.10
2022-12-23T21:26:30.859Z,0.90
2022-12-23T21:28:59.553Z,0.77
2022-12-23T21:31:27.350Z,1.10
2022-12-23T21:33:54.848Z,0.80
2022-12-23T21:36:24.188Z,0.70
2022-12-23T21:38:51.622Z,0.80
2022-12-23T21:41:27.460Z,0.90
2022-12-23T21:43:56.473Z,0.80
2022-12-23T21:46:24.006Z,0.80
2022-12-23T21:48:50.767Z,0.90
2022-12-23T21:51:21.586Z,0.90
2022-12-23T21:53:50.781Z,0.80
2022-12-23T21:56:24.272Z,0.80
2022-12-23T21:58:54.591Z,0.70
2022-12-23T22:01:21.275Z,0.80
2022-12-23T22:03:49.640Z,0.90
2022-12-23T22:06:21.592Z,0.85
2022-12-23T22:08:49.276Z,0.70
2022-12-23T22:11:19.396Z,0.80
2022-12-23T22:13:46.267Z,0.70
2022-12-23T22:16:15.469Z,0.80
2022-12-23T22:18:42.840Z,0.98
2022-12-23T22:21:12.553Z,0.68
2022-12-23T22:23:39.657Z,0.60
2022-12-23T22:26:07.259Z,0.50
2022-12-23T22:28:36.141Z,0.90
2022-12-23T22:31:24.389Z,0.80
2022-12-23T22:33:51.058Z,0.70
2022-12-23T22:36:17.895Z,0.82
2022-12-23T22:38:51.411Z,0.65
2022-12-23T22:41:18.007Z,0.80
2022-12-23T22:43:44.677Z,0.60
2022-12-23T22:46:11.624Z,0.90
2022-12-23T22:48:38.326Z,0.80
2022-12-23T22:51:09.415Z,0.75
2022-12-23T22:53:36.878Z,0.70
2022-12-23T22:56:04.628Z,0.80
2022-12-23T22:58:32.709Z,0.77
2022-12-23T23:00:59.956Z,0.70
2022-12-23T23:03:26.978Z,0.73
2022-12-23T23:06:06.787Z,0.68
2022-12-23T23:08:34.536Z,0.77
2022-12-23T23:11:04.407Z,0.77
2022-12-23T23:13:33.505Z,0.77
2022-12-23T23:16:00.601Z,0.85
2022-12-23T23:18:28.944Z,0.80
2022-12-23T23:20:55.628Z,0.68
2022-12-23T23:23:22.422Z,0.73
2022-12-23T23:25:49.027Z,0.70
2022-12-23T23:28:16.256Z,0.73
2022-12-23T23:30:42.905Z,0.70
2022-12-23T23:33:10.382Z,0.80
2022-12-23T23:35:37.501Z,0.85
2022-12-23T23:38:04.183Z,0.70
2022-12-23T23:40:30.827Z,0.70
2022-12-23T23:42:57.444Z,0.65
2022-12-23T23:45:24.150Z,0.85
2022-12-23T23:47:51.135Z,0.70
2022-12-23T23:50:17.796Z,0.70
2022-12-23T23:52:44.477Z,0.70
2022-12-23T23:55:11.248Z,0.80
2022-12-23T23:57:38.217Z,0.88
